sensor_id;sensor_type;location;lat;lon;timestamp;pressure;altitude;pressure_sealevel;temperature;humidity
69796;BME280;57073;45.650;9.612;2023-01-19T00:05:30;97511.47;;;5.05;72.30
69796;BME280;57073;45.650;9.612;2023-01-19T00:15:32;97509.72;;;4.99;72.25
69796;BME280;57073;45.650;9.612;2023-01-19T00:25:33;97527.88;;;5.02;71.88
69796;BME280;57073;45.650;9.612;2023-01-19T00:35:34;97519.38;;;5.12;71.49
69796;BME280;57073;45.650;9.612;2023-01-19T00:45:35;97516.53;;;4.95;71.92
69796;BME280;57073;45.650;9.612;2023-01-19T00:55:35;97529.38;;;4.98;71.45
69796;BME280;57073;45.650;9.612;2023-01-19T01:05:39;97522.44;;;4.97;71.69
69796;BME280;57073;45.650;9.612;2023-01-19T01:15:39;97510.88;;;4.91;70.83
69796;BME280;57073;45.650;9.612;2023-01-19T01:25:40;97527.63;;;4.92;71.83
69796;BME280;57073;45.650;9.612;2023-01-19T01:35:41;97539.59;;;4.83;71.50
69796;BME280;57073;45.650;9.612;2023-01-19T01:45:42;97541.28;;;4.95;71.38
69796;BME280;57073;45.650;9.612;2023-01-19T01:55:45;97520.44;;;4.92;71.52
69796;BME280;57073;45.650;9.612;2023-01-19T02:05:48;97524.97;;;4.92;71.34
69796;BME280;57073;45.650;9.612;2023-01-19T02:15:55;97519.13;;;4.83;72.27
69796;BME280;57073;45.650;9.612;2023-01-19T02:25:57;97517.13;;;4.97;71.74
69796;BME280;57073;45.650;9.612;2023-01-19T02:35:59;97512.91;;;4.89;72.01
69796;BME280;57073;45.650;9.612;2023-01-19T02:45:59;97501.47;;;4.89;71.84
69796;BME280;57073;45.650;9.612;2023-01-19T03:06:59;97513.75;;;4.90;71.81
69796;BME280;57073;45.650;9.612;2023-01-19T03:16:47;97526.72;;;4.98;72.13
69796;BME280;57073;45.650;9.612;2023-01-19T03:26:57;97532.75;;;5.05;71.20
69796;BME280;57073;45.650;9.612;2023-01-19T03:37:02;97524.47;;;5.13;72.10
69796;BME280;57073;45.650;9.612;2023-01-19T03:47:04;97516.63;;;5.18;72.09
69796;BME280;57073;45.650;9.612;2023-01-19T03:57:06;97526.81;;;5.22;72.56
69796;BME280;57073;45.650;9.612;2023-01-19T04:07:08;97535.28;;;5.30;72.59
69796;BME280;57073;45.650;9.612;2023-01-19T04:17:08;97551.88;;;5.14;73.78
69796;BME280;57073;45.650;9.612;2023-01-19T04:27:09;97534.69;;;5.28;73.51
69796;BME280;57073;45.650;9.612;2023-01-19T04:37:10;97545.56;;;5.27;73.90
69796;BME280;57073;45.650;9.612;2023-01-19T04:47:10;97541.59;;;5.48;73.75
69796;BME280;57073;45.650;9.612;2023-01-19T04:57:10;97550.59;;;5.47;72.83
69796;BME280;57073;45.650;9.612;2023-01-19T05:07:11;97573.06;;;5.21;72.82
69796;BME280;57073;45.650;9.612;2023-01-19T05:17:11;97566.31;;;5.18;72.70
69796;BME280;57073;45.650;9.612;2023-01-19T05:27:11;97571.66;;;5.18;71.30
69796;BME280;57073;45.650;9.612;2023-01-19T05:37:12;97584.78;;;5.31;70.86
69796;BME280;57073;45.650;9.612;2023-01-19T05:47:13;97605.19;;;5.19;69.64
69796;BME280;57073;45.650;9.612;2023-01-19T05:57:13;97611.63;;;4.74;69.94
69796;BME280;57073;45.650;9.612;2023-01-19T06:07:13;97637.78;;;4.96;69.36
69796;BME280;57073;45.650;9.612;2023-01-19T06:17:14;97648.31;;;5.21;68.46
69796;BME280;57073;45.650;9.612;2023-01-19T06:27:14;97653.13;;;5.12;66.94
69796;BME280;57073;45.650;9.612;2023-01-19T06:37:15;97649.13;;;5.22;66.47
69796;BME280;57073;45.650;9.612;2023-01-19T06:47:15;97663.91;;;5.36;65.67
69796;BME280;57073;45.650;9.612;2023-01-19T06:57:16;97665.22;;;5.45;67.09
69796;BME280;57073;45.650;9.612;2023-01-19T07:07:16;97694.31;;;5.40;67.12
69796;BME280;57073;45.650;9.612;2023-01-19T07:17:17;97723.75;;;5.08;67.38
69796;BME280;57073;45.650;9.612;2023-01-19T07:27:18;97742.13;;;4.91;68.08
69796;BME280;57073;45.650;9.612;2023-01-19T07:37:18;97755.88;;;4.82;68.73
69796;BME280;57073;45.650;9.612;2023-01-19T07:47:19;97762.56;;;4.66;69.82
69796;BME280;57073;45.650;9.612;2023-01-19T07:57:19;97771.72;;;4.45;69.46
69796;BME280;57073;45.650;9.612;2023-01-19T08:07:20;97793.22;;;4.36;70.63
69796;BME280;57073;45.650;9.612;2023-01-19T08:17:20;97808.06;;;4.44;69.49
69796;BME280;57073;45.650;9.612;2023-01-19T08:27:21;97844.06;;;4.40;70.60
69796;BME280;57073;45.650;9.612;2023-01-19T08:37:21;97849.00;;;4.36;70.69
69796;BME280;57073;45.650;9.612;2023-01-19T08:47:22;97871.75;;;4.57;70.95
69796;BME280;57073;45.650;9.612;2023-01-19T08:57:22;97897.53;;;4.57;71.13
69796;BME280;57073;45.650;9.612;2023-01-19T09:07:22;97917.56;;;4.53;70.13
69796;BME280;57073;45.650;9.612;2023-01-19T09:17:23;97932.72;;;4.46;69.90
69796;BME280;57073;45.650;9.612;2023-01-19T09:27:23;97932.38;;;4.35;69.69
69796;BME280;57073;45.650;9.612;2023-01-19T09:37:23;97955.47;;;4.28;70.62
69796;BME280;57073;45.650;9.612;2023-01-19T09:47:27;97957.94;;;4.23;70.57
69796;BME280;57073;45.650;9.612;2023-01-19T09:57:29;97957.47;;;4.33;70.27
69796;BME280;57073;45.650;9.612;2023-01-19T10:27:45;97956.41;;;4.47;70.22
69796;BME280;57073;45.650;9.612;2023-01-19T10:37:45;97958.44;;;4.52;71.23
69796;BME280;57073;45.650;9.612;2023-01-19T10:47:47;97954.03;;;4.77;71.23
69796;BME280;57073;45.650;9.612;2023-01-19T10:57:49;97949.28;;;4.86;71.27
69796;BME280;57073;45.650;9.612;2023-01-19T11:07:50;97965.28;;;5.11;71.95
69796;BME280;57073;45.650;9.612;2023-01-19T11:17:51;97965.78;;;5.27;70.32
69796;BME280;57073;45.650;9.612;2023-01-19T11:27:52;97961.66;;;5.31;68.46
69796;BME280;57073;45.650;9.612;2023-01-19T11:38:15;97968.28;;;5.22;68.26
69796;BME280;57073;45.650;9.612;2023-01-19T11:48:23;97967.91;;;4.79;70.76
69796;BME280;57073;45.650;9.612;2023-01-19T11:58:26;97973.16;;;4.93;70.06
69796;BME280;57073;45.650;9.612;2023-01-19T12:08:33;97968.78;;;5.05;69.59
69796;BME280;57073;45.650;9.612;2023-01-19T12:18:39;97960.59;;;5.07;69.80
69796;BME280;57073;45.650;9.612;2023-01-19T12:28:43;97961.69;;;4.60;70.02
69796;BME280;57073;45.650;9.612;2023-01-19T12:38:52;97958.19;;;4.60;69.43
69796;BME280;57073;45.650;9.612;2023-01-19T12:48:53;97957.69;;;4.83;69.72
69796;BME280;57073;45.650;9.612;2023-01-19T12:58:54;97960.41;;;4.70;70.02
69796;BME280;57073;45.650;9.612;2023-01-19T13:08:56;97954.94;;;4.96;70.50
69796;BME280;57073;45.650;9.612;2023-01-19T13:29:25;97972.84;;;5.40;69.49
69796;BME280;57073;45.650;9.612;2023-01-19T13:39:34;97979.59;;;5.42;69.46
69796;BME280;57073;45.650;9.612;2023-01-19T13:49:38;97991.47;;;5.40;68.15
69796;BME280;57073;45.650;9.612;2023-01-19T13:59:40;97990.94;;;5.81;68.71
69796;BME280;57073;45.650;9.612;2023-01-19T14:09:40;98007.44;;;5.97;67.99
69796;BME280;57073;45.650;9.612;2023-01-19T14:19:48;98009.88;;;5.98;66.81
69796;BME280;57073;45.650;9.612;2023-01-19T14:29:50;98022.59;;;5.96;67.47
69796;BME280;57073;45.650;9.612;2023-01-19T15:00:18;98043.72;;;5.66;67.92
69796;BME280;57073;45.650;9.612;2023-01-19T15:10:20;98048.66;;;5.62;68.34
69796;BME280;57073;45.650;9.612;2023-01-19T15:20:22;98058.25;;;5.63;69.07
69796;BME280;57073;45.650;9.612;2023-01-19T15:30:24;98075.47;;;5.61;69.39
69796;BME280;57073;45.650;9.612;2023-01-19T15:40:34;98071.94;;;5.67;69.60
69796;BME280;57073;45.650;9.612;2023-01-19T15:50:42;98076.91;;;5.56;69.72
69796;BME280;57073;45.650;9.612;2023-01-19T16:00:42;98086.19;;;5.47;69.81
69796;BME280;57073;45.650;9.612;2023-01-19T16:10:43;98075.22;;;5.37;70.02
69796;BME280;57073;45.650;9.612;2023-01-19T16:20:43;98106.09;;;5.38;68.75
69796;BME280;57073;45.650;9.612;2023-01-19T16:30:43;98105.75;;;5.28;69.25
69796;BME280;57073;45.650;9.612;2023-01-19T16:40:44;98122.13;;;5.18;70.59
69796;BME280;57073;45.650;9.612;2023-01-19T16:51:04;98121.53;;;5.23;69.87
69796;BME280;57073;45.650;9.612;2023-01-19T17:01:16;98131.56;;;5.21;68.85
69796;BME280;57073;45.650;9.612;2023-01-19T17:11:21;98153.47;;;5.54;67.94
69796;BME280;57073;45.650;9.612;2023-01-19T17:21:22;98152.06;;;5.59;68.27
69796;BME280;57073;45.650;9.612;2023-01-19T17:31:23;98155.22;;;5.74;67.28
69796;BME280;57073;45.650;9.612;2023-01-19T17:41:25;98157.47;;;5.77;66.82
69796;BME280;57073;45.650;9.612;2023-01-19T17:51:27;98157.53;;;5.64;66.78
69796;BME280;57073;45.650;9.612;2023-01-19T18:01:30;98152.28;;;5.50;67.63
69796;BME280;57073;45.650;9.612;2023-01-19T18:11:30;98148.75;;;5.56;67.95
69796;BME280;57073;45.650;9.612;2023-01-19T18:21:31;98131.41;;;5.47;67.38
69796;BME280;57073;45.650;9.612;2023-01-19T18:31:31;98144.81;;;5.27;68.15
69796;BME280;57073;45.650;9.612;2023-01-19T18:41:31;98146.91;;;5.18;67.62
69796;BME280;57073;45.650;9.612;2023-01-19T18:51:33;98154.06;;;5.18;68.76
69796;BME280;57073;45.650;9.612;2023-01-19T19:01:33;98134.81;;;5.23;68.50
69796;BME280;57073;45.650;9.612;2023-01-19T19:11:34;98146.66;;;5.27;68.84
69796;BME280;57073;45.650;9.612;2023-01-19T19:21:34;98149.59;;;5.12;68.89
69796;BME280;57073;45.650;9.612;2023-01-19T19:31:35;98163.50;;;5.14;70.04
69796;BME280;57073;45.650;9.612;2023-01-19T19:41:35;98170.47;;;5.08;69.21
69796;BME280;57073;45.650;9.612;2023-01-19T19:51:37;98164.56;;;4.99;69.45
69796;BME280;57073;45.650;9.612;2023-01-19T20:01:38;98159.88;;;4.95;70.56
69796;BME280;57073;45.650;9.612;2023-01-19T20:11:38;98172.38;;;4.88;71.51
69796;BME280;57073;45.650;9.612;2023-01-19T20:21:40;98183.00;;;4.81;70.77
69796;BME280;57073;45.650;9.612;2023-01-19T20:31:44;98189.13;;;4.82;71.01
69796;BME280;57073;45.650;9.612;2023-01-19T20:41:45;98186.06;;;4.78;69.80
69796;BME280;57073;45.650;9.612;2023-01-19T20:51:45;98193.44;;;4.69;70.63
69796;BME280;57073;45.650;9.612;2023-01-19T21:01:46;98201.22;;;4.64;70.96
69796;BME280;57073;45.650;9.612;2023-01-19T21:11:47;98198.56;;;4.51;70.84
69796;BME280;57073;45.650;9.612;2023-01-19T21:21:47;98199.59;;;4.50;70.71
69796;BME280;57073;45.650;9.612;2023-01-19T21:31:48;98201.22;;;4.44;70.99
69796;BME280;57073;45.650;9.612;2023-01-19T21:41:48;98219.22;;;4.35;71.26
69796;BME280;57073;45.650;9.612;2023-01-19T21:51:48;98224.53;;;4.35;72.26
69796;BME280;57073;45.650;9.612;2023-01-19T22:01:52;98230.22;;;4.19;72.49
69796;BME280;57073;45.650;9.612;2023-01-19T22:11:52;98246.94;;;4.13;72.74
69796;BME280;57073;45.650;9.612;2023-01-19T22:21:52;98252.28;;;4.06;72.05
69796;BME280;57073;45.650;9.612;2023-01-19T22:31:53;98260.84;;;4.08;72.33
69796;BME280;57073;45.650;9.612;2023-01-19T22:41:53;98255.47;;;3.88;72.16
69796;BME280;57073;45.650;9.612;2023-01-19T22:51:54;98253.63;;;3.89;72.85
69796;BME280;57073;45.650;9.612;2023-01-19T23:01:54;98254.66;;;3.81;73.21
69796;BME280;57073;45.650;9.612;2023-01-19T23:11:55;98262.59;;;3.81;72.66
69796;BME280;57073;45.650;9.612;2023-01-19T23:21:55;98259.72;;;3.76;72.87
69796;BME280;57073;45.650;9.612;2023-01-19T23:31:55;98274.22;;;3.80;72.90
69796;BME280;57073;45.650;9.612;2023-01-19T23:41:56;98273.75;;;3.70;72.97
69796;BME280;57073;45.650;9.612;2023-01-19T23:51:56;98278.63;;;3.59;73.12
